Highland, OH (45132)

3:42 AM EST on December 07, 2016 (GMT -0500)
APRSWXNET | | Change Station

Elev 1024 ft 39.43 °N, 83.55 °W | Updated 34 minutes ago

Clear
Clear
31 °F
Feels Like 26 °F
N
5
Wind Variable Wind from WNW
Gusts 10.0 mph

Today
High -- | Low -- °F
--% Chance of Precip.
Yesterday
High -- | Low -- °F
Precip. -- in
Pressure 30.12 in
Visibility 10.0 miles
Clouds Clear
Windchill 26 °F
Dew Point 28 °F
Humidity 89%
Rainfall in
Snow Depth Not available.
7:41 AM 5:10 PM
Waxing Crescent, 50% visible
METAR KILN 070754Z AUTO 27006KT 10SM CLR M01/M03 A3005 RMK AO2 SLP197 T10061028
Pressure 30.12 in
Visibility 10.0 miles
Clouds Clear
Windchill 26 °F
Dew Point 28 °F
Humidity 89%
Rainfall in
Snow Depth Not available.
7:41 AM 5:10 PM
Waxing Crescent, 50% visible
METAR KILN 070754Z AUTO 27006KT 10SM CLR M01/M03 A3005 RMK AO2 SLP197 T10061028

10-Day Weather Forecast

Almanac

Astronomy

Dec. 07, 2016 Rise Set
Actual Time
Civil Twilight
Nautical Twilight
Astronomical Twilight
Moon
Length of Visible Light
Length of Day
Tomorrow will be .
, % of the Moon is Illuminated

Today's Extremes

State Highs State Lows

Community

WunderPhotos

Upload Photos

1,956,104 photos uploaded!

WunderBlog® & News

Nearby

Air Quality

  Air Quality AQ Index Pollutant
Not available.

Snow Depth

Station Depth Elevation

Earthquake Activity

City Distance Mag. Time & Date
Minimum magnitude displayed is 2.5.

Coastal Water Temperatures

Place Temperature

Stations

Nearby Weather Stations

Station Location Temp. Windchill Dew Point Humidity Wind Precip. Elev Updated Type
                   

Watches & Warnings

There are currently no watches in effect.